Time;durP1;ratioP1;P1;durP2;ratioP2;P2;SDS_P1;SDS_P2;PMS_P1;PMS_P2;Temp;Humidity;BMP_temperature;BMP_pressure;BME280_temperature;BME280_humidity;BME280_pressure;Samples;Min_cycle;Max_cycle;Signal;HPM_P1;HPM_P2
2022/03/15 00:01:44;;;;;;;6.90;4.60;;;;;;;-139.48;100.00;61774.03;5004999;28;20102;-74
2022/03/15 00:04:28;;;;;;;8.75;5.10;;;;;;;-139.48;100.00;61774.03;5018843;28;20044;-72
2022/03/15 00:07:16;;;;;;;10.45;5.60;;;;;;;-139.48;100.00;61774.03;5033823;28;20114;-73
2022/03/15 00:10:00;;;;;;;15.10;5.43;;;;;;;-139.48;100.00;61774.03;5019238;28;20088;-72
2022/03/15 00:12:45;;;;;;;7.35;4.63;;;;;;;-139.48;100.00;61774.03;5033412;28;20094;-74
2022/03/15 00:15:30;;;;;;;7.55;5.30;;;;;;;-139.48;100.00;61774.03;5018835;28;20084;-72
2022/03/15 00:18:15;;;;;;;11.35;5.82;;;;;;;-139.48;100.00;61774.03;5004908;28;20068;-74
2022/03/15 00:21:02;;;;;;;9.25;4.72;;;;;;;-139.48;100.00;61774.03;5033434;28;20082;-74
2022/03/15 00:23:46;;;;;;;10.13;5.63;;;;;;;-139.48;100.00;61774.03;5018478;28;20123;-73
2022/03/15 00:26:30;;;;;;;11.63;6.50;;;;;;;-139.48;100.00;61774.03;5033440;28;20122;-74
2022/03/15 00:29:17;;;;;;;7.53;5.03;;;;;;;-139.48;100.00;61774.03;5018161;28;20107;-74
2022/03/15 00:32:00;;;;;;;8.68;5.57;;;;;;;-139.48;100.00;61774.03;5033073;28;20088;-72
2022/03/15 00:34:44;;;;;;;6.65;5.03;;;;;;;-139.48;100.00;61774.03;5033271;28;20044;-74
2022/03/15 00:37:29;;;;;;;9.00;5.82;;;;;;;-139.48;100.00;61774.03;5033215;28;20555;-74
2022/03/15 00:40:14;;;;;;;8.18;5.07;;;;;;;-139.48;100.00;61774.03;5033122;28;20123;-74
2022/03/15 00:42:58;;;;;;;8.95;5.20;;;;;;;-139.48;100.00;61774.03;5032908;28;20088;-74
2022/03/15 00:45:42;;;;;;;13.73;5.43;;;;;;;-139.48;100.00;61774.03;5018535;28;20048;-74
2022/03/15 00:48:26;;;;;;;11.20;6.05;;;;;;;-139.48;100.00;61774.03;5017703;28;20128;-74
2022/03/15 00:51:10;;;;;;;12.20;5.97;;;;;;;-139.48;100.00;61774.03;5017748;28;20103;-74
2022/03/15 00:53:54;;;;;;;12.57;5.80;;;;;;;-139.48;100.00;61774.03;5032825;28;20048;-74
2022/03/15 00:56:38;;;;;;;9.65;5.78;;;;;;;-139.48;100.00;61774.03;5032988;28;20052;-74
2022/03/15 00:59:22;;;;;;;7.93;5.68;;;;;;;-139.48;100.00;61774.03;5017638;28;20072;-74
2022/03/15 01:02:06;;;;;;;10.43;6.35;;;;;;;-139.48;100.00;61774.03;5018105;28;20095;-75
2022/03/15 01:04:50;;;;;;;8.82;5.35;;;;;;;-139.48;100.00;61774.03;5032882;28;20121;-74
2022/03/15 01:07:34;;;;;;;11.95;5.70;;;;;;;-139.48;100.00;61774.03;5017736;28;20056;-73
2022/03/15 01:10:18;;;;;;;15.73;6.07;;;;;;;-139.48;100.00;61774.03;5017597;28;20111;-74
2022/03/15 01:13:02;;;;;;;9.15;5.18;;;;;;;-139.48;100.00;61774.03;5032782;28;20139;-74
2022/03/15 01:15:46;;;;;;;9.65;5.78;;;;;;;-139.48;100.00;61774.03;5017532;28;20067;-74
2022/03/15 01:18:30;;;;;;;10.27;6.10;;;;;;;-139.48;100.00;61774.03;5032802;28;20123;-74
2022/03/15 01:21:14;;;;;;;11.15;5.55;;;;;;;-139.48;100.00;61774.03;5032679;28;20056;-74
2022/03/15 01:23:58;;;;;;;9.55;5.30;;;;;;;-139.48;100.00;61774.03;5032480;28;20045;-74
2022/03/15 01:26:42;;;;;;;12.27;5.30;;;;;;;-139.48;100.00;61774.03;5032460;28;20520;-74
2022/03/15 01:29:26;;;;;;;9.27;5.70;;;;;;;-139.48;100.00;61774.03;5017455;28;20111;-74
2022/03/15 01:32:10;;;;;;;13.73;5.47;;;;;;;-139.48;100.00;61774.03;5017460;28;20048;-74
2022/03/15 01:34:54;;;;;;;10.55;5.00;;;;;;;-139.48;100.00;61774.03;5032531;28;20052;-74
2022/03/15 01:37:38;;;;;;;7.40;5.00;;;;;;;-139.48;100.00;61774.03;5017852;28;20052;-74
2022/03/15 01:40:22;;;;;;;11.50;5.50;;;;;;;-139.48;100.00;61774.03;5032160;28;20092;-74
2022/03/15 01:43:06;;;;;;;8.20;4.53;;;;;;;-139.48;100.00;61774.03;5017583;28;20148;-74
2022/03/15 01:45:49;;;;;;;7.07;4.72;;;;;;;-139.48;100.00;61774.03;5017307;28;20129;-74
2022/03/15 01:48:33;;;;;;;10.70;5.07;;;;;;;-139.48;100.00;61774.03;5032490;28;20107;-74
2022/03/15 01:51:18;;;;;;;7.22;4.75;;;;;;;-139.48;100.00;61774.03;5017229;28;20080;-74
2022/03/15 01:54:02;;;;;;;10.10;5.07;;;;;;;-139.48;100.00;61774.03;5017179;28;20176;-74
2022/03/15 01:56:46;;;;;;;9.25;5.72;;;;;;;-139.48;100.00;61774.03;5017416;28;20059;-74
2022/03/15 01:59:31;;;;;;;14.18;4.95;;;;;;;-139.48;100.00;61774.03;5017512;28;20068;-74
2022/03/15 02:02:15;;;;;;;8.63;5.20;;;;;;;-139.48;100.00;61774.03;5035927;28;20571;-74
2022/03/15 02:04:59;;;;;;;8.75;5.05;;;;;;;-139.48;100.00;61774.03;5020810;28;20076;-73
2022/03/15 02:07:43;;;;;;;5.43;4.35;;;;;;;-139.48;100.00;61774.03;5036036;28;20048;-74
2022/03/15 02:10:26;;;;;;;8.30;5.15;;;;;;;-139.48;100.00;61774.03;5035873;28;20049;-74
2022/03/15 02:13:10;;;;;;;11.38;5.30;;;;;;;-139.48;100.00;61774.03;5035948;28;20512;-74
2022/03/15 02:15:55;;;;;;;9.32;4.50;;;;;;;-139.48;100.00;61774.03;5035806;28;20055;-73
2022/03/15 02:18:39;;;;;;;9.57;5.25;;;;;;;-139.48;100.00;61774.03;5035542;28;20528;-73
2022/03/15 02:21:23;;;;;;;6.75;4.25;;;;;;;-139.48;100.00;61774.03;5035840;28;20061;-72
2022/03/15 02:24:07;;;;;;;7.50;4.45;;;;;;;-139.48;100.00;61774.03;5020999;28;20413;-74
2022/03/15 02:26:51;;;;;;;8.77;4.90;;;;;;;-139.48;100.00;61774.03;5035651;28;20056;-73
2022/03/15 02:29:35;;;;;;;9.30;4.75;;;;;;;-139.48;100.00;61774.03;5035346;28;20047;-72
2022/03/15 02:32:19;;;;;;;8.93;4.75;;;;;;;-139.48;100.00;61774.03;5035295;28;20424;-74
2022/03/15 02:35:03;;;;;;;9.30;4.63;;;;;;;-139.48;100.00;61774.03;5034784;28;20424;-74
2022/03/15 02:37:47;;;;;;;8.98;4.68;;;;;;;-139.48;100.00;61774.03;5020456;28;20052;-73
2022/03/15 02:40:31;;;;;;;8.60;5.22;;;;;;;-139.48;100.00;61774.03;5035218;28;20057;-73
2022/03/15 02:43:18;;;;;;;8.60;4.95;;;;;;;-139.48;100.00;61774.03;5035135;28;20048;-73
2022/03/15 02:46:02;;;;;;;9.80;5.07;;;;;;;-139.48;100.00;61774.03;5020224;28;20056;-74
2022/03/15 02:48:46;;;;;;;8.40;5.05;;;;;;;-139.48;100.00;61774.03;5035010;28;20100;-74
2022/03/15 02:51:31;;;;;;;14.55;5.05;;;;;;;-139.48;100.00;61774.03;5019850;28;20135;-73
2022/03/15 02:54:15;;;;;;;9.98;5.07;;;;;;;-139.48;100.00;61774.03;5035113;28;20044;-74
2022/03/15 02:57:01;;;;;;;6.45;4.60;;;;;;;-139.48;100.00;61774.03;5020114;28;20052;-73
2022/03/15 02:59:44;;;;;;;8.13;4.43;;;;;;;-139.48;100.00;61774.03;5020268;28;20048;-74
2022/03/15 03:02:29;;;;;;;7.38;4.53;;;;;;;-139.48;100.00;61774.03;5006075;28;20048;-74
2022/03/15 03:05:13;;;;;;;7.45;4.40;;;;;;;-139.48;100.00;61774.03;5034805;28;20481;-74
2022/03/15 03:07:57;;;;;;;8.05;4.88;;;;;;;-139.48;100.00;61774.03;5035217;28;20052;-74
2022/03/15 03:10:41;;;;;;;8.55;4.32;;;;;;;-139.48;100.00;61774.03;5019533;28;20043;-74
2022/03/15 03:13:40;;;;;;;8.93;4.80;;;;;;;-139.48;100.00;61774.03;5034030;28;20107;-73
2022/03/15 03:16:26;;;;;;;6.70;4.57;;;;;;;-139.48;100.00;61774.03;5020045;28;20134;-74
2022/03/15 03:19:10;;;;;;;10.07;5.07;;;;;;;-139.48;100.00;61774.03;5019326;28;20060;-73
2022/03/15 03:21:53;;;;;;;8.02;4.82;;;;;;;-139.48;100.00;61774.03;5019412;28;20044;-74
2022/03/15 03:24:37;;;;;;;11.95;5.30;;;;;;;-139.48;100.00;61774.03;5034345;28;20473;-73
2022/03/15 03:27:21;;;;;;;8.82;5.22;;;;;;;-139.48;100.00;61774.03;5034527;28;20052;-73
2022/03/15 03:30:06;;;;;;;8.80;4.70;;;;;;;-139.48;100.00;61774.03;5019127;28;20055;-74
2022/03/15 03:32:50;;;;;;;7.85;4.63;;;;;;;-139.48;100.00;61774.03;5034173;28;20068;-74
2022/03/15 03:35:34;;;;;;;7.63;4.55;;;;;;;-139.48;100.00;61774.03;5034324;28;20049;-74
2022/03/15 03:38:17;;;;;;;9.90;5.10;;;;;;;-139.48;100.00;61774.03;5019291;28;20052;-73
2022/03/15 03:41:03;;;;;;;10.02;4.43;;;;;;;-139.48;100.00;61774.03;5018953;28;20045;-74
2022/03/15 03:43:47;;;;;;;9.98;4.85;;;;;;;-139.48;100.00;61774.03;5019130;28;20516;-69
2022/03/15 03:46:34;;;;;;;7.07;4.47;;;;;;;-139.48;100.00;61774.03;5033938;28;20128;-73
2022/03/15 03:49:18;;;;;;;8.57;4.53;;;;;;;-139.48;100.00;61774.03;5033960;28;20142;-73
2022/03/15 03:52:05;;;;;;;5.80;4.15;;;;;;;-139.48;100.00;61774.03;5033544;28;20059;-70
2022/03/15 03:54:49;;;;;;;7.20;4.38;;;;;;;-139.48;100.00;61774.03;5019619;28;20103;-74
2022/03/15 03:57:33;;;;;;;7.10;4.30;;;;;;;-139.48;100.00;61774.03;5018914;28;20049;-75
2022/03/15 04:00:18;;;;;;;12.68;4.20;;;;;;;-139.48;100.00;61774.03;5018678;28;20099;-73
2022/03/15 04:03:03;;;;;;;5.97;4.10;;;;;;;-139.48;100.00;61774.03;5019192;28;20521;-74
2022/03/15 04:05:48;;;;;;;7.07;4.13;;;;;;;-139.48;100.00;61774.03;5018743;28;20509;-74
2022/03/15 04:08:32;;;;;;;6.10;4.22;;;;;;;-139.48;100.00;61774.03;5018620;28;20404;-74
2022/03/15 04:11:16;;;;;;;7.75;4.53;;;;;;;-139.48;100.00;61774.03;5018512;28;20526;-74
2022/03/15 04:14:03;;;;;;;6.88;4.20;;;;;;;-139.48;100.00;61774.03;5033406;28;20047;-74
2022/03/15 04:16:47;;;;;;;8.10;4.43;;;;;;;-139.48;100.00;61774.03;5018560;28;20056;-74
2022/03/15 04:19:31;;;;;;;8.63;4.80;;;;;;;-139.48;100.00;61774.03;5033531;28;20130;-74
2022/03/15 04:22:15;;;;;;;5.88;4.00;;;;;;;-139.48;100.00;61774.03;5033463;28;20106;-74
2022/03/15 04:24:59;;;;;;;9.48;4.53;;;;;;;-139.48;100.00;61774.03;5017491;28;20367;-73
2022/03/15 04:27:43;;;;;;;9.18;5.00;;;;;;;-139.48;100.00;61774.03;5004389;28;20056;-74
2022/03/15 04:30:28;;;;;;;6.28;3.83;;;;;;;-139.48;100.00;61774.03;5033142;28;20437;-74
2022/03/15 04:33:12;;;;;;;11.38;5.10;;;;;;;-139.48;100.00;61774.03;5018181;28;20048;-72
2022/03/15 04:35:56;;;;;;;7.03;4.47;;;;;;;-139.48;100.00;61774.03;5033062;28;20187;-73
2022/03/15 04:38:40;;;;;;;9.35;5.30;;;;;;;-139.48;100.00;61774.03;5018317;28;20191;-74
2022/03/15 04:41:26;;;;;;;9.35;4.72;;;;;;;-139.48;100.00;61774.03;5032799;28;20508;-74
2022/03/15 04:44:10;;;;;;;8.30;4.50;;;;;;;-139.48;100.00;61774.03;5018197;28;20056;-74
2022/03/15 04:46:54;;;;;;;6.90;4.60;;;;;;;-139.48;100.00;61774.03;5033380;28;20355;-74
2022/03/15 04:49:38;;;;;;;9.15;4.28;;;;;;;-139.48;100.00;61774.03;5004218;28;20405;-74
2022/03/15 04:52:22;;;;;;;9.60;4.65;;;;;;;-139.48;100.00;61774.03;5032688;28;20182;-74
2022/03/15 04:55:07;;;;;;;9.00;4.95;;;;;;;-139.48;100.00;61774.03;5018046;28;20045;-75
2022/03/15 04:57:51;;;;;;;11.32;5.30;;;;;;;-139.48;100.00;61774.03;5018280;28;20055;-73
2022/03/15 05:00:35;;;;;;;11.55;4.78;;;;;;;-139.48;100.00;61774.03;5003870;28;20124;-74
2022/03/15 05:03:19;;;;;;;9.10;4.72;;;;;;;-139.48;100.00;61774.03;5017984;28;20052;-74
2022/03/15 05:06:03;;;;;;;9.00;4.75;;;;;;;-139.48;100.00;61774.03;5032974;28;20052;-74
2022/03/15 05:08:48;;;;;;;7.50;4.65;;;;;;;-139.48;100.00;61774.03;5017968;28;20147;-74
2022/03/15 05:11:34;;;;;;;8.30;4.28;;;;;;;-139.48;100.00;61774.03;5017599;28;20040;-74
2022/03/15 05:14:18;;;;;;;9.32;4.18;;;;;;;-139.48;100.00;61774.03;5017819;28;20524;-73
2022/03/15 05:17:02;;;;;;;8.85;4.75;;;;;;;-139.48;100.00;61774.03;5032826;28;20056;-74
2022/03/15 05:19:47;;;;;;;7.50;5.05;;;;;;;-139.48;100.00;61774.03;5017579;28;20140;-74
2022/03/15 05:22:32;;;;;;;7.38;5.15;;;;;;;-139.48;100.00;61774.03;5017501;28;20049;-72
2022/03/15 05:25:16;;;;;;;8.40;4.75;;;;;;;-139.48;100.00;61774.03;5018427;28;20142;-74
2022/03/15 05:27:59;;;;;;;6.40;4.90;;;;;;;-139.48;100.00;61774.03;5032745;28;20103;-74
2022/03/15 05:30:43;;;;;;;7.97;4.72;;;;;;;-139.48;100.00;61774.03;5032727;28;20099;-74
2022/03/15 05:33:28;;;;;;;7.95;4.47;;;;;;;-139.48;100.00;61774.03;5032771;28;20051;-74
2022/03/15 05:36:13;;;;;;;7.78;4.72;;;;;;;-139.48;100.00;61774.03;5006413;28;20467;-73
2022/03/15 05:38:57;;;;;;;6.78;4.47;;;;;;;-139.48;100.00;61774.03;5021743;28;20167;-74
2022/03/15 05:41:41;;;;;;;16.17;5.30;;;;;;;-139.48;100.00;61774.03;5021573;28;20056;-73
2022/03/15 05:44:26;;;;;;;10.18;4.93;;;;;;;-139.48;100.00;61774.03;5007599;28;20107;-73
2022/03/15 05:47:10;;;;;;;16.75;4.90;;;;;;;-139.48;100.00;61774.03;5036477;28;20052;-73
2022/03/15 05:49:54;;;;;;;7.20;4.45;;;;;;;-139.48;100.00;61774.03;5021360;28;20047;-73
2022/03/15 05:52:37;;;;;;;5.28;3.88;;;;;;;-139.48;100.00;61774.03;5035959;28;20585;-73
2022/03/15 05:55:21;;;;;;;6.95;5.10;;;;;;;-139.48;100.00;61774.03;5036279;28;20532;-74
2022/03/15 05:58:06;;;;;;;7.57;4.30;;;;;;;-139.48;100.00;61774.03;5021522;28;20180;-74
2022/03/15 06:00:55;;;;;;;6.05;4.10;;;;;;;-139.48;100.00;61774.03;5021110;28;20045;-73
2022/03/15 06:03:39;;;;;;;12.10;5.40;;;;;;;-139.48;100.00;61774.03;5021673;28;20519;-73
2022/03/15 06:06:24;;;;;;;12.55;4.78;;;;;;;-139.48;100.00;61774.03;5035901;28;20110;-74
2022/03/15 06:09:07;;;;;;;8.93;4.53;;;;;;;-139.48;100.00;61774.03;5021071;28;20447;-74
2022/03/15 06:11:52;;;;;;;11.25;5.28;;;;;;;-139.48;100.00;61774.03;5035705;28;20433;-74
2022/03/15 06:14:35;;;;;;;7.75;4.70;;;;;;;-139.48;100.00;61774.03;5035716;28;20362;-74
2022/03/15 06:17:19;;;;;;;7.05;5.15;;;;;;;-139.48;100.00;61774.03;5035728;28;20052;-74
2022/03/15 06:20:03;;;;;;;5.47;4.15;;;;;;;-139.48;100.00;61774.03;5020723;28;20099;-74
2022/03/15 06:22:47;;;;;;;10.68;5.80;;;;;;;-139.48;100.00;61774.03;5035574;28;20043;-73
2022/03/15 06:25:31;;;;;;;10.32;5.22;;;;;;;-139.48;100.00;61774.03;5020509;28;20119;-74
2022/03/15 06:28:16;;;;;;;7.65;4.40;;;;;;;-139.48;100.00;61774.03;5035451;28;20404;-74
2022/03/15 06:31:00;;;;;;;6.65;4.53;;;;;;;-139.48;100.00;61774.03;5035614;28;20048;-74
2022/03/15 06:33:44;;;;;;;7.97;4.80;;;;;;;-139.48;100.00;61774.03;5035393;28;20489;-74
2022/03/15 06:36:29;;;;;;;6.75;4.50;;;;;;;-139.48;100.00;61774.03;5006518;28;20064;-74
2022/03/15 06:39:13;;;;;;;7.80;4.85;;;;;;;-139.48;100.00;61774.03;5020514;28;20048;-74
2022/03/15 06:41:58;;;;;;;11.80;5.38;;;;;;;-139.48;100.00;61774.03;5035392;28;20115;-74
2022/03/15 06:44:42;;;;;;;8.82;5.53;;;;;;;-139.48;100.00;61774.03;5020256;28;20104;-73
2022/03/15 06:47:26;;;;;;;9.50;5.22;;;;;;;-139.48;100.00;61774.03;5019428;28;20504;-74
2022/03/15 06:50:12;;;;;;;9.40;4.53;;;;;;;-139.48;100.00;61774.03;5035323;28;20052;-74
2022/03/15 06:52:56;;;;;;;9.27;5.40;;;;;;;-139.48;100.00;61774.03;5020369;28;20056;-73
2022/03/15 06:55:40;;;;;;;9.05;5.40;;;;;;;-139.48;100.00;61774.03;5035467;28;20056;-75
2022/03/15 06:58:24;;;;;;;8.80;5.80;;;;;;;-139.48;100.00;61774.03;5020146;28;20449;-74
2022/03/15 07:01:07;;;;;;;8.63;5.10;;;;;;;-139.48;100.00;61774.03;5019648;28;20563;-74
2022/03/15 07:03:51;;;;;;;9.38;5.53;;;;;;;-139.48;100.00;61774.03;5019818;28;20520;-72
2022/03/15 07:06:36;;;;;;;6.85;4.97;;;;;;;-139.48;100.00;61774.03;5034807;28;20103;-75
2022/03/15 07:09:20;;;;;;;9.90;5.90;;;;;;;-139.48;100.00;61774.03;5020184;28;20099;-73
2022/03/15 07:12:04;;;;;;;11.15;5.45;;;;;;;-139.48;100.00;61774.03;5019665;28;20460;-73
2022/03/15 07:14:49;;;;;;;7.70;5.25;;;;;;;-139.48;100.00;61774.03;5019647;28;20099;-74
2022/03/15 07:17:33;;;;;;;9.50;5.55;;;;;;;-139.48;100.00;61774.03;5019883;28;20206;-74
2022/03/15 07:20:18;;;;;;;10.30;5.45;;;;;;;-139.48;100.00;61774.03;5019384;28;20087;-75
2022/03/15 07:23:02;;;;;;;9.32;5.93;;;;;;;-139.48;100.00;61774.03;5035153;28;20102;-73
2022/03/15 07:25:46;;;;;;;12.23;5.60;;;;;;;-139.48;100.00;61774.03;5019865;28;20483;-72
2022/03/15 07:28:31;;;;;;;9.40;5.43;;;;;;;-139.48;100.00;61774.03;5019584;28;20080;-73
2022/03/15 07:31:15;;;;;;;10.35;6.80;;;;;;;-139.48;100.00;61774.03;5019316;28;20079;-74
2022/03/15 07:33:58;;;;;;;8.10;5.75;;;;;;;-139.48;100.00;61774.03;5019520;28;20056;-73
2022/03/15 07:36:42;;;;;;;9.90;5.60;;;;;;;-139.48;100.00;61774.03;5019262;28;20049;-73
2022/03/15 07:39:26;;;;;;;10.75;6.40;;;;;;;-139.48;100.00;61774.03;5034370;28;20048;-74
2022/03/15 07:42:10;;;;;;;7.40;5.65;;;;;;;-139.48;100.00;61774.03;5034126;28;20048;-74
2022/03/15 07:44:54;;;;;;;9.60;5.50;;;;;;;-139.48;100.00;61774.03;5019433;28;20099;-74
2022/03/15 07:47:38;;;;;;;9.32;5.80;;;;;;;-139.48;100.00;61774.03;5020397;28;20563;-71
2022/03/15 07:50:23;;;;;;;11.88;6.07;;;;;;;-139.48;100.00;61774.03;5034724;28;20477;-73
2022/03/15 07:53:07;;;;;;;11.55;5.85;;;;;;;-139.48;100.00;61774.03;5020603;28;20049;-73
2022/03/15 07:55:51;;;;;;;13.75;6.00;;;;;;;-139.48;100.00;61774.03;5020077;28;20053;-73
2022/03/15 07:58:35;;;;;;;;;;;;;;;-139.48;100.00;61774.03;5021392;28;20047;-72
2022/03/15 08:01:19;;;;;;;9.13;6.07;;;;;;;-139.48;100.00;61774.03;5033749;28;20015;-73
2022/03/15 08:04:04;;;;;;;14.18;6.45;;;;;;;-139.48;100.00;61774.03;5019879;28;20122;-73
2022/03/15 08:06:48;;;;;;;11.75;6.20;;;;;;;-139.48;100.00;61774.03;5006262;28;20044;-73
2022/03/15 08:09:32;;;;;;;10.63;6.60;;;;;;;-139.48;100.00;61774.03;5006473;28;20511;-73
2022/03/15 08:12:17;;;;;;;8.98;5.57;;;;;;;-139.48;100.00;61774.03;5019840;28;20099;-74
2022/03/15 08:15:03;;;;;;;12.98;6.00;;;;;;;-139.48;100.00;61774.03;5033938;28;20080;-73
2022/03/15 08:17:46;;;;;;;9.38;5.68;;;;;;;-139.48;100.00;61774.03;5033822;28;20044;-73
2022/03/15 08:20:33;;;;;;;16.00;7.68;;;;;;;-139.48;100.00;61774.03;5018689;28;20525;-73
2022/03/15 08:23:20;;;;;;;19.08;10.80;;;;;;;-139.48;100.00;61774.03;5018824;28;20053;-73
2022/03/15 08:26:04;;;;;;;11.60;7.32;;;;;;;-139.48;100.00;61774.03;5033662;28;20107;-72
2022/03/15 08:28:49;;;;;;;12.43;8.55;;;;;;;-139.48;100.00;61774.03;5033746;28;20052;-73
2022/03/15 08:31:33;;;;;;;11.90;7.00;;;;;;;-139.48;100.00;61774.03;5033197;28;20095;-72
2022/03/15 08:34:17;;;;;;;13.50;7.28;;;;;;;-139.48;100.00;61774.03;5018249;28;20052;-73
2022/03/15 08:37:01;;;;;;;14.68;7.90;;;;;;;-139.48;100.00;61774.03;5018799;28;20052;-73
2022/03/15 08:39:45;;;;;;;22.02;8.70;;;;;;;-139.48;100.00;61774.03;5033024;28;20056;-73
2022/03/15 08:42:29;;;;;;;13.05;8.02;;;;;;;-139.48;100.00;61774.03;5033130;28;20055;-74
2022/03/15 08:45:13;;;;;;;13.52;7.35;;;;;;;-139.48;100.00;61774.03;5033023;28;20123;-74
2022/03/15 08:47:57;;;;;;;14.57;8.43;;;;;;;-139.48;100.00;61774.03;5033340;28;20185;-74
2022/03/15 08:50:41;;;;;;;19.38;9.25;;;;;;;-139.48;100.00;61774.03;5018013;28;21503;-73
2022/03/15 08:53:25;;;;;;;16.73;8.93;;;;;;;-139.48;100.00;61774.03;5018218;28;20137;-74
2022/03/15 08:56:09;;;;;;;14.60;8.07;;;;;;;-139.48;100.00;61774.03;5018386;28;20438;-74
2022/03/15 08:58:54;;;;;;;17.95;8.88;;;;;;;-139.48;100.00;61774.03;5017929;28;20048;-74
2022/03/15 09:01:42;;;;;;;14.60;8.65;;;;;;;-139.48;100.00;61774.03;5018124;28;20055;-72
2022/03/15 09:04:26;;;;;;;15.60;9.27;;;;;;;-139.48;100.00;61774.03;5018072;28;20420;-74
2022/03/15 09:07:10;;;;;;;15.50;9.50;;;;;;;-139.48;100.00;61774.03;5017886;28;20044;-73
2022/03/15 09:09:54;;;;;;;13.82;9.10;;;;;;;-139.48;100.00;61774.03;5032773;28;20500;-74
2022/03/15 09:12:38;;;;;;;14.90;8.85;;;;;;;-139.48;100.00;61774.03;5017901;28;20071;-73
2022/03/15 09:15:23;;;;;;;16.67;8.73;;;;;;;-139.48;100.00;61774.03;5032870;28;20103;-74
2022/03/15 09:18:07;;;;;;;14.70;8.48;;;;;;;-139.48;100.00;61774.03;5017595;28;20063;-74
2022/03/15 09:20:52;;;;;;;15.85;8.77;;;;;;;-139.48;100.00;61774.03;5017785;28;20056;-72
2022/03/15 09:23:36;;;;;;;20.20;10.85;;;;;;;-139.48;100.00;61774.03;5032661;28;20098;-74
2022/03/15 09:26:20;;;;;;;14.75;8.98;;;;;;;-139.48;100.00;61774.03;5032426;28;20052;-74
2022/03/15 09:29:04;;;;;;;16.77;9.18;;;;;;;-139.48;100.00;61774.03;5032743;28;20053;-74
2022/03/15 09:31:48;;;;;;;14.27;8.15;;;;;;;-139.48;100.00;61774.03;5017623;28;20064;-74
2022/03/15 09:34:33;;;;;;;24.55;10.25;;;;;;;-139.48;100.00;61774.03;5017637;28;20052;-74
2022/03/15 09:37:17;;;;;;;16.65;8.90;;;;;;;-139.48;100.00;61774.03;5032512;28;20052;-75
2022/03/15 09:40:01;;;;;;;12.98;7.97;;;;;;;-139.48;100.00;61774.03;5017356;28;20111;-74
2022/03/15 09:42:48;;;;;;;14.20;7.85;;;;;;;-139.48;100.00;61774.03;5017385;28;20474;-75
2022/03/15 09:45:35;;;;;;;13.35;8.30;;;;;;;-139.48;100.00;61774.03;5017436;28;20056;-75
2022/03/15 09:48:24;;;;;;;14.05;8.43;;;;;;;-139.48;100.00;61774.03;5017800;28;20128;-73
2022/03/15 09:51:14;;;;;;;19.30;7.72;;;;;;;-139.48;100.00;61774.03;5017465;28;20045;-74
2022/03/15 09:53:58;;;;;;;16.45;8.25;;;;;;;-139.48;100.00;61774.03;5017732;28;20052;-75
2022/03/15 09:56:42;;;;;;;15.10;8.65;;;;;;;-139.48;100.00;61774.03;5017520;28;20183;-73
2022/03/15 09:59:27;;;;;;;12.75;7.70;;;;;;;-139.48;100.00;61774.03;5017109;28;20041;-75
2022/03/15 10:02:12;;;;;;;18.48;9.30;;;;;;;-139.48;100.00;61774.03;5032195;28;20064;-73
2022/03/15 10:04:56;;;;;;;12.45;8.15;;;;;;;-139.48;100.00;61774.03;5032375;28;20500;-72
2022/03/15 10:07:41;;;;;;;84.18;42.53;;;;;;;-139.48;100.00;61774.03;5017332;28;20172;-75
2022/03/15 10:10:24;;;;;;;72.38;35.33;;;;;;;-139.48;100.00;61774.03;5017244;28;20472;-74
2022/03/15 10:13:09;;;;;;;14.88;8.43;;;;;;;-139.48;100.00;61774.03;5054872;22;20413;-76
2022/03/15 10:15:55;;;;;;;14.93;8.00;;;;;;;-139.48;100.00;61774.03;5032598;28;20075;-76
2022/03/15 10:18:39;;;;;;;15.27;8.82;;;;;;;-139.48;100.00;61774.03;5003209;28;20132;-76
2022/03/15 10:21:25;;;;;;;17.27;11.35;;;;;;;-139.48;100.00;61774.03;5032184;28;20060;-77
2022/03/15 10:24:09;;;;;;;23.88;13.77;;;;;;;-139.48;100.00;61774.03;5035768;28;20079;-76
2022/03/15 10:26:57;;;;;;;20.70;11.18;;;;;;;-139.48;100.00;61774.03;5020770;28;20578;-74
2022/03/15 10:29:42;;;;;;;20.63;11.63;;;;;;;-139.48;100.00;61774.03;5035378;28;20508;-76
2022/03/15 10:32:27;;;;;;;20.85;11.60;;;;;;;-139.48;100.00;61774.03;5035486;28;20056;-76
2022/03/15 10:35:12;;;;;;;14.88;9.25;;;;;;;-139.48;100.00;61774.03;5006631;28;20045;-76
2022/03/15 10:37:57;;;;;;;16.48;9.05;;;;;;;-139.48;100.00;61774.03;5020798;28;20056;-76
2022/03/15 10:40:50;;;;;;;16.17;9.82;;;;;;;-139.48;100.00;61774.03;5035461;28;20055;-75
2022/03/15 10:43:34;;;;;;;15.20;8.15;;;;;;;-139.48;100.00;61774.03;5020162;28;20048;-76
2022/03/15 10:46:22;;;;;;;28.08;19.38;;;;;;;-139.48;100.00;61774.03;5035692;28;20051;-75
2022/03/15 10:49:06;;;;;;;16.70;10.32;;;;;;;-139.48;100.00;61774.03;5020206;28;20134;-75
2022/03/15 10:51:50;;;;;;;19.67;8.35;;;;;;;-139.48;100.00;61774.03;5020200;28;20468;-75
2022/03/15 10:54:35;;;;;;;13.95;9.07;;;;;;;-139.48;100.00;61774.03;5034946;28;20052;-75
2022/03/15 10:57:19;;;;;;;20.27;11.02;;;;;;;-139.48;100.00;61774.03;5035203;28;20140;-75
2022/03/15 11:00:07;;;;;;;15.07;9.05;;;;;;;-139.48;100.00;61774.03;5005993;28;20137;-75
2022/03/15 11:02:52;;;;;;;13.75;8.07;;;;;;;-139.48;100.00;61774.03;5035051;28;20468;-73
2022/03/15 11:05:38;;;;;;;16.83;9.15;;;;;;;-139.48;100.00;61774.03;5020038;28;20143;-73
2022/03/15 11:08:22;;;;;;;16.75;10.82;;;;;;;-139.48;100.00;61774.03;5019859;28;20176;-73
2022/03/15 11:11:06;;;;;;;16.10;10.23;;;;;;;-139.48;100.00;61774.03;5035011;28;20421;-73
2022/03/15 11:13:58;;;;;;;15.88;8.57;;;;;;;-139.48;100.00;61774.03;5034587;28;20045;-73
2022/03/15 11:16:45;;;;;;;20.75;11.85;;;;;;;-139.48;100.00;61774.03;5019610;28;20102;-73
2022/03/15 11:19:31;;;;;;;30.60;22.05;;;;;;;-139.48;100.00;61774.03;5034704;28;20052;-73
2022/03/15 11:22:20;;;;;;;26.15;16.20;;;;;;;-139.48;100.00;61774.03;5019749;28;20071;-73
2022/03/15 11:25:06;;;;;;;59.05;44.40;;;;;;;-139.48;100.00;61774.03;5034477;28;20052;-73
2022/03/15 11:27:53;;;;;;;15.20;8.32;;;;;;;-139.48;100.00;61774.03;5005755;28;20146;-73
2022/03/15 11:30:38;;;;;;;11.73;8.07;;;;;;;-139.48;100.00;61774.03;5034618;28;20041;-74
2022/03/15 11:33:22;;;;;;;13.65;7.50;;;;;;;-139.48;100.00;61774.03;5034299;28;20414;-72
2022/03/15 11:36:06;;;;;;;13.30;7.00;;;;;;;-139.48;100.00;61774.03;5034282;28;20586;-76
2022/03/15 11:38:51;;;;;;;11.85;6.90;;;;;;;-139.48;100.00;61774.03;5019438;28;20092;-76
2022/03/15 11:41:36;;;;;;;10.40;6.63;;;;;;;-139.48;100.00;61774.03;5019339;28;20095;-69
2022/03/15 11:44:27;;;;;;;10.60;7.30;;;;;;;-139.48;100.00;61774.03;5019395;28;20051;-68
2022/03/15 11:48:02;;;;;;;12.70;7.65;;;;;;;-139.48;100.00;61774.03;5019390;28;20453;-69
2022/03/15 11:51:10;;;;;;;14.80;7.53;;;;;;;-139.48;100.00;61774.03;5010707;28;20118;-68
2022/03/15 11:54:06;;;;;;;15.52;8.15;;;;;;;-139.48;100.00;61774.03;5005186;28;20408;-68
2022/03/15 11:56:53;;;;;;;13.45;8.35;;;;;;;-139.48;100.00;61774.03;5019806;28;20095;-68
2022/03/15 11:59:48;;;;;;;9.02;7.07;;;;;;;-139.48;100.00;61774.03;5018742;28;20056;-67
2022/03/15 12:02:40;;;;;;;18.42;8.90;;;;;;;-139.48;100.00;61774.03;5019149;28;20091;-68
2022/03/15 12:05:25;;;;;;;14.20;7.90;;;;;;;-139.48;100.00;61774.03;5018950;28;20555;-68
2022/03/15 12:08:15;;;;;;;13.23;6.93;;;;;;;-139.48;100.00;61774.03;5033861;28;20191;-68
2022/03/15 12:11:05;;;;;;;12.95;7.70;;;;;;;-139.48;100.00;61774.03;5033895;28;20108;-68
2022/03/15 12:13:49;;;;;;;10.63;7.35;;;;;;;-139.48;100.00;61774.03;5018554;28;20055;-68
2022/03/15 12:16:35;;;;;;;12.57;7.20;;;;;;;-139.48;100.00;61774.03;5033691;28;20048;-67
2022/03/15 12:19:38;;;;;;;12.13;7.00;;;;;;;-139.48;100.00;61774.03;5033937;28;20136;-68
2022/03/15 12:22:26;;;;;;;9.48;6.43;;;;;;;-139.48;100.00;61774.03;5033497;28;20052;-69
2022/03/15 12:25:17;;;;;;;12.60;6.80;;;;;;;-139.48;100.00;61774.03;5018210;28;20068;-69